Time;durP1;ratioP1;P1;durP2;ratioP2;P2;SDS_P1;SDS_P2;PMS_P1;PMS_P2;Temp;Humidity;BMP_temperature;BMP_pressure;BME280_temperature;BME280_humidity;BME280_pressure;Samples;Min_cycle;Max_cycle;Signal;HPM_P1;HPM_P2
2023/12/20 00:00:06;;;;;;;10.90;8.30;;;;;;;6.13;66.85;99236.30;108862;1256;59361;-78
2023/12/20 00:02:33;;;;;;;12.70;9.30;;;;;;;6.13;67.02;99225.80;108874;1256;58764;-77
2023/12/20 00:05:01;;;;;;;12.90;9.70;;;;;;;6.11;66.85;99225.21;108929;1257;72593;-79
2023/12/20 00:07:28;;;;;;;11.60;7.90;;;;;;;6.10;66.91;99227.39;108772;1257;68753;-77
2023/12/20 00:09:56;;;;;;;14.10;8.70;;;;;;;6.09;66.76;99218.50;108785;1256;71299;-78
2023/12/20 00:12:23;;;;;;;12.40;8.90;;;;;;;6.09;66.37;99217.65;108587;1256;58099;-78
2023/12/20 00:14:51;;;;;;;11.40;8.70;;;;;;;6.12;66.56;99207.22;108914;1257;59039;-76
2023/12/20 00:17:18;;;;;;;11.60;8.60;;;;;;;6.13;66.66;99204.82;108846;1256;72658;-78
2023/12/20 00:19:45;;;;;;;11.60;8.60;;;;;;;6.13;66.40;99199.51;108824;1257;70938;-77
2023/12/20 00:22:13;;;;;;;12.30;8.40;;;;;;;6.14;66.55;99192.58;108865;1257;70954;-77
2023/12/20 00:24:41;;;;;;;13.70;9.10;;;;;;;6.15;66.51;99197.65;108824;1262;58027;-78
2023/12/20 00:27:08;;;;;;;12.90;9.40;;;;;;;6.15;66.22;99184.89;108882;1256;58990;-77
2023/12/20 00:29:36;;;;;;;14.10;8.90;;;;;;;6.16;66.33;99177.98;108931;1257;72644;-77
2023/12/20 00:32:04;;;;;;;12.80;8.80;;;;;;;6.15;66.26;99170.50;108987;1256;68919;-77
2023/12/20 00:34:31;;;;;;;13.20;8.80;;;;;;;6.14;66.54;99167.23;108954;1257;71745;-78
2023/12/20 00:36:59;;;;;;;11.50;7.70;;;;;;;6.13;66.39;99160.02;108964;1259;59034;-80
2023/12/20 00:39:26;;;;;;;9.70;7.50;;;;;;;6.11;66.38;99145.56;109009;1257;59154;-77
2023/12/20 00:41:54;;;;;;;10.40;8.00;;;;;;;6.09;66.53;99132.70;109029;1257;72524;-79
2023/12/20 00:45:25;;;;;;;12.60;8.50;;;;;;;6.12;66.16;99132.77;106100;1292;599846;-80
2023/12/20 00:47:53;;;;;;;11.30;7.20;;;;;;;6.13;66.10;99135.59;108291;1267;59152;-78
2023/12/20 00:50:21;;;;;;;10.50;7.80;;;;;;;6.14;65.90;99136.33;108582;1266;58740;-78
2023/12/20 00:52:50;;;;;;;9.60;7.70;;;;;;;6.16;65.76;99129.21;108995;1257;70981;-78
2023/12/20 00:55:18;;;;;;;10.70;8.00;;;;;;;6.18;65.84;99127.48;109056;1257;69077;-77
2023/12/20 00:57:46;;;;;;;9.90;7.50;;;;;;;6.19;65.53;99124.19;109043;1258;71397;-75
2023/12/20 01:00:14;;;;;;;10.30;7.20;;;;;;;6.21;65.73;99124.20;109166;1255;58385;-76
2023/12/20 01:02:41;;;;;;;12.20;7.40;;;;;;;6.22;65.49;99123.16;109254;1254;58776;-79
2023/12/20 01:05:09;;;;;;;10.40;7.40;;;;;;;6.26;65.19;99113.66;109455;1254;71408;-77
2023/12/20 01:07:37;;;;;;;9.30;6.70;;;;;;;6.29;65.29;99118.45;108988;1254;68735;-76
2023/12/20 01:10:04;;;;;;;9.60;7.40;;;;;;;6.32;64.88;99116.19;108796;1254;71421;-75
2023/12/20 01:12:32;;;;;;;9.60;7.30;;;;;;;6.36;64.50;99117.37;109052;1256;57974;-80
2023/12/20 01:15:00;;;;;;;11.60;6.70;;;;;;;6.40;64.81;99104.33;109057;1257;59444;-79
2023/12/20 01:17:27;;;;;;;12.20;7.20;;;;;;;6.42;64.67;99106.74;108785;1257;71789;-79
2023/12/20 01:19:55;;;;;;;11.00;7.30;;;;;;;6.43;64.21;99100.42;109031;1257;69039;-79
2023/12/20 01:22:22;;;;;;;10.00;6.90;;;;;;;6.44;64.42;99111.23;108960;1262;72009;-78
2023/12/20 01:24:51;;;;;;;12.00;8.20;;;;;;;6.44;64.11;99101.54;108840;1258;59471;-77
2023/12/20 01:27:18;;;;;;;14.80;7.20;;;;;;;6.47;64.08;99090.74;108699;1256;58293;-78
2023/12/20 01:29:46;;;;;;;9.90;7.00;;;;;;;6.49;64.08;99086.86;108840;1257;71820;-81
2023/12/20 01:32:14;;;;;;;13.00;7.50;;;;;;;6.50;64.00;99099.20;109004;1257;69017;-77
2023/12/20 01:34:41;;;;;;;11.80;7.20;;;;;;;6.53;63.66;99089.97;108510;1257;74876;-78
2023/12/20 01:37:09;;;;;;;11.70;8.20;;;;;;;6.57;63.62;99089.20;106210;1263;59825;-74
2023/12/20 01:39:37;;;;;;;10.70;7.90;;;;;;;6.57;63.63;99082.48;106088;1254;59531;-77
2023/12/20 01:42:05;;;;;;;11.80;7.90;;;;;;;6.56;63.78;99072.77;105586;1263;73251;-77
2023/12/20 01:44:32;;;;;;;10.90;7.70;;;;;;;6.57;63.93;99069.29;105532;1265;69571;-78
2023/12/20 01:47:00;;;;;;;11.50;8.10;;;;;;;6.55;63.83;99071.31;105846;1260;72765;-80
2023/12/20 01:49:27;;;;;;;11.20;8.00;;;;;;;6.52;63.77;99064.54;105700;1258;59618;-76
2023/12/20 01:51:55;;;;;;;10.20;7.70;;;;;;;6.49;64.29;99066.29;105631;1257;59633;-78
2023/12/20 01:54:23;;;;;;;11.30;6.80;;;;;;;6.44;64.29;99074.02;105659;1257;72234;-77
2023/12/20 01:56:51;;;;;;;10.90;8.00;;;;;;;6.42;64.32;99067.56;106615;1258;71102;-77
2023/12/20 01:59:19;;;;;;;13.90;8.90;;;;;;;6.40;64.33;99057.04;106347;1262;71343;-78
2023/12/20 02:01:46;;;;;;;7.80;6.70;;;;;;;6.36;64.50;99059.66;106398;1260;59691;-76
2023/12/20 02:04:14;;;;;;;11.90;7.20;;;;;;;6.34;64.61;99050.80;105640;1257;59497;-79
2023/12/20 02:07:34;;;;;;;9.50;7.50;;;;;;;6.33;64.86;99044.58;102556;1292;600513;-80
2023/12/20 02:10:04;;;;;;;15.90;10.20;;;;;;;6.26;64.96;99031.69;105011;1271;59335;-79
2023/12/20 02:12:31;;;;;;;10.10;7.40;;;;;;;6.24;65.12;99031.68;105301;1268;59275;-79
2023/12/20 02:14:59;;;;;;;10.50;7.00;;;;;;;6.21;65.01;99029.98;105293;1268;72293;-79
2023/12/20 02:17:27;;;;;;;11.00;6.60;;;;;;;6.18;65.25;99035.20;105251;1264;70165;-79
2023/12/20 02:19:55;;;;;;;11.30;7.20;;;;;;;6.16;65.50;99025.40;105353;1268;71477;-80
2023/12/20 02:22:23;;;;;;;11.00;7.50;;;;;;;6.10;65.65;99027.52;105257;1268;217148;-78
2023/12/20 02:24:50;;;;;;;9.10;7.20;;;;;;;6.07;66.03;99031.81;105278;1267;59633;-75
2023/12/20 02:27:18;;;;;;;11.00;7.80;;;;;;;6.04;65.88;99037.46;105221;1264;71192;-75
2023/12/20 02:29:47;;;;;;;11.70;7.30;;;;;;;6.03;65.94;99025.10;105282;1262;69432;-78
2023/12/20 02:32:15;;;;;;;9.80;7.20;;;;;;;6.02;65.93;99023.26;105292;1265;72251;-80
2023/12/20 02:34:43;;;;;;;9.60;7.10;;;;;;;6.01;66.04;99029.64;105227;1266;59727;-76
2023/12/20 02:37:11;;;;;;;9.80;7.70;;;;;;;6.00;65.89;99030.85;105363;1264;59644;-77
2023/12/20 02:39:38;;;;;;;10.30;7.60;;;;;;;5.98;66.09;99042.80;105462;1263;73125;-79
2023/12/20 02:42:06;;;;;;;13.80;9.60;;;;;;;5.96;66.22;99032.86;105261;1263;69253;-78
2023/12/20 02:44:34;;;;;;;10.30;7.50;;;;;;;5.93;66.17;99039.09;105823;1261;72692;-76
2023/12/20 02:47:02;;;;;;;11.90;6.90;;;;;;;5.90;66.31;99031.79;105838;1261;59762;-75
2023/12/20 02:49:29;;;;;;;11.30;7.40;;;;;;;5.88;66.33;99021.67;105946;1263;59634;-75
2023/12/20 02:51:57;;;;;;;10.50;7.50;;;;;;;5.85;66.29;99023.38;106327;1265;73187;-73
2023/12/20 02:54:25;;;;;;;9.70;7.40;;;;;;;5.83;66.40;99014.73;106456;1266;70454;-76
2023/12/20 02:56:52;;;;;;;11.00;7.10;;;;;;;5.81;66.57;99017.50;105413;1263;70349;-77
2023/12/20 02:59:20;;;;;;;11.60;7.30;;;;;;;5.77;66.72;99013.65;105367;1268;59673;-82
2023/12/20 03:01:48;;;;;;;10.00;7.40;;;;;;;5.73;66.80;99008.54;105488;1262;59623;-77
2023/12/20 03:04:15;;;;;;;11.50;7.20;;;;;;;5.69;67.10;99001.41;106028;1257;73156;-78
2023/12/20 03:06:43;;;;;;;10.30;6.80;;;;;;;5.64;67.09;98989.39;105981;1259;69258;-79
2023/12/20 03:09:11;;;;;;;14.00;8.70;;;;;;;5.61;67.12;98988.20;105904;1259;74777;-80
2023/12/20 03:11:38;;;;;;;12.90;7.40;;;;;;;5.57;67.36;98988.90;106038;1259;59651;-76
2023/12/20 03:14:06;;;;;;;11.60;7.70;;;;;;;5.53;67.27;98995.98;105956;1256;61841;-81
2023/12/20 03:16:33;;;;;;;9.30;7.30;;;;;;;5.51;67.42;98996.90;105667;1258;71832;-80
2023/12/20 03:19:03;;;;;;;9.90;7.50;;;;;;;5.48;67.83;98995.21;105752;1254;68913;-77
2023/12/20 03:21:31;;;;;;;11.10;7.10;;;;;;;5.45;67.81;98998.73;105759;1259;71439;-76
2023/12/20 03:23:59;;;;;;;10.70;7.80;;;;;;;5.41;67.90;98995.77;106055;1256;59752;-75
2023/12/20 03:26:27;;;;;;;11.50;7.70;;;;;;;5.39;68.13;98992.83;105811;1260;60098;-78
2023/12/20 03:28:54;;;;;;;10.90;7.90;;;;;;;5.36;68.29;98999.52;105578;1261;73591;-78
2023/12/20 03:31:22;;;;;;;13.20;8.60;;;;;;;5.34;68.11;98994.44;105598;1260;70553;-77
2023/12/20 03:33:52;;;;;;;10.70;8.00;;;;;;;5.32;68.38;98994.73;105479;1262;71882;-75
2023/12/20 03:36:20;;;;;;;14.90;8.70;;;;;;;5.28;68.60;98999.33;105583;1263;59748;-76
2023/12/20 03:38:48;;;;;;;9.70;7.60;;;;;;;5.38;68.50;99002.77;105584;1261;60225;-75
2023/12/20 03:41:15;;;;;;;13.50;9.30;;;;;;;5.44;68.43;99001.63;105720;1256;71698;-76
2023/12/20 03:43:43;;;;;;;13.40;9.20;;;;;;;5.41;68.17;99009.64;105572;1260;70208;-75
2023/12/20 03:46:11;;;;;;;11.00;8.10;;;;;;;5.38;68.28;99016.11;106486;1263;71341;-77
2023/12/20 03:48:39;;;;;;;10.20;8.00;;;;;;;5.33;68.33;99017.45;105708;1260;59608;-74
2023/12/20 03:51:06;;;;;;;12.10;8.80;;;;;;;5.29;68.23;99014.52;105674;1261;59753;-76
2023/12/20 03:53:34;;;;;;;9.90;7.80;;;;;;;5.25;68.20;99009.27;105505;1262;73059;-77
2023/12/20 03:56:02;;;;;;;11.30;7.90;;;;;;;5.20;68.52;99009.11;105664;1257;71136;-77
2023/12/20 03:58:29;;;;;;;10.60;7.60;;;;;;;5.17;68.52;99005.91;105672;1261;71564;-75
2023/12/20 04:00:57;;;;;;;11.40;7.90;;;;;;;5.12;68.61;99007.46;105573;1260;59872;-75
2023/12/20 04:03:24;;;;;;;14.50;8.90;;;;;;;5.08;68.79;99002.69;105540;1257;60137;-76
2023/12/20 04:05:52;;;;;;;15.50;9.10;;;;;;;5.05;68.82;99001.77;105573;1262;73099;-77
2023/12/20 04:08:20;;;;;;;12.20;8.50;;;;;;;5.04;68.72;98997.38;105636;1258;70486;-76
2023/12/20 04:10:47;;;;;;;13.30;8.50;;;;;;;5.02;68.69;98998.80;105540;1268;71691;-76
2023/12/20 04:13:15;;;;;;;12.70;9.10;;;;;;;5.03;68.69;99006.55;105439;1256;59914;-75
2023/12/20 04:15:42;;;;;;;12.40;9.40;;;;;;;5.11;68.72;99004.68;105474;1264;59539;-75
2023/12/20 04:18:10;;;;;;;13.60;9.70;;;;;;;5.12;68.60;99012.04;105713;1255;73279;-74
2023/12/20 04:20:38;;;;;;;12.30;9.00;;;;;;;5.06;68.65;99002.20;105506;1256;70137;-75
2023/12/20 04:23:05;;;;;;;12.10;8.50;;;;;;;5.00;68.57;99006.63;105599;1260;73276;-74
2023/12/20 04:25:33;;;;;;;12.70;8.30;;;;;;;4.97;68.69;99003.48;105724;1255;59792;-73
2023/12/20 04:28:00;;;;;;;12.90;8.30;;;;;;;4.93;68.92;99006.50;105669;1256;60026;-75
2023/12/20 04:30:28;;;;;;;10.90;8.00;;;;;;;4.88;68.92;99016.05;105556;1258;71803;-75
2023/12/20 04:32:57;;;;;;;11.70;8.70;;;;;;;4.86;68.94;99013.29;105444;1265;69609;-73
2023/12/20 04:35:25;;;;;;;11.00;8.20;;;;;;;4.85;68.98;99024.29;105649;1264;73162;-74
2023/12/20 04:37:53;;;;;;;12.20;8.50;;;;;;;4.84;68.77;99019.48;105521;1263;59661;-73
2023/12/20 04:40:21;;;;;;;12.30;8.40;;;;;;;4.82;69.01;99015.07;106456;1258;59592;-75
2023/12/20 04:42:49;;;;;;;12.00;8.30;;;;;;;4.89;68.96;99012.80;107218;1257;73079;-75
2023/12/20 04:45:17;;;;;;;11.80;8.40;;;;;;;4.93;69.16;99012.98;106315;1260;69125;-75
2023/12/20 04:47:46;;;;;;;12.00;8.50;;;;;;;4.91;68.91;99012.65;105664;1261;72720;-75
2023/12/20 04:50:15;;;;;;;12.50;8.50;;;;;;;4.84;68.88;99009.58;105644;1262;59757;-76
2023/12/20 04:52:43;;;;;;;13.00;8.90;;;;;;;4.79;69.29;99000.84;105722;1263;60352;-77
2023/12/20 04:55:11;;;;;;;15.70;9.30;;;;;;;4.74;69.26;99001.25;105737;1259;75546;-76
2023/12/20 04:57:38;;;;;;;11.60;8.80;;;;;;;4.70;69.55;98998.33;105662;1262;68847;-78
2023/12/20 05:00:08;;;;;;;14.00;9.00;;;;;;;4.63;69.42;98996.29;105597;1263;72783;-76
2023/12/20 05:02:36;;;;;;;13.00;9.10;;;;;;;4.61;69.45;99007.48;105774;1261;59726;-75
2023/12/20 05:05:04;;;;;;;14.00;8.80;;;;;;;4.57;69.77;99007.56;105672;1257;59566;-76
2023/12/20 05:07:32;;;;;;;11.80;8.50;;;;;;;4.55;69.63;99015.44;105650;1268;71831;-77
2023/12/20 05:09:59;;;;;;;10.90;8.60;;;;;;;4.64;69.45;99014.75;105552;1261;68905;-78
2023/12/20 05:12:27;;;;;;;14.00;9.10;;;;;;;4.70;69.25;99019.91;105494;1263;71469;-77
2023/12/20 05:14:55;;;;;;;13.40;8.10;;;;;;;4.69;69.44;99020.76;105822;1262;59598;-78
2023/12/20 05:17:22;;;;;;;11.30;7.80;;;;;;;4.66;69.53;99022.08;106419;1263;60450;-78
2023/12/20 05:19:50;;;;;;;14.40;9.00;;;;;;;4.62;69.66;99018.38;106324;1261;73038;-76
2023/12/20 05:22:21;;;;;;;11.70;7.90;;;;;;;4.59;69.87;99016.64;106339;1258;70700;-79
2023/12/20 05:24:49;;;;;;;12.80;9.00;;;;;;;4.56;69.73;99013.40;105809;1258;72530;-79
2023/12/20 05:27:16;;;;;;;12.80;9.50;;;;;;;4.55;69.90;99013.36;105681;1257;59721;-81
2023/12/20 05:29:44;;;;;;;12.90;8.70;;;;;;;4.57;70.16;99010.13;105648;1257;59544;-82
2023/12/20 05:32:12;;;;;;;11.60;8.70;;;;;;;4.66;69.53;99007.20;105857;1260;71780;-80
2023/12/20 05:34:39;;;;;;;16.50;10.50;;;;;;;4.64;69.46;99012.64;106157;1257;68937;-76
2023/12/20 05:37:07;;;;;;;13.60;9.80;;;;;;;4.60;69.31;99011.61;107347;1258;74471;-76
2023/12/20 05:39:35;;;;;;;13.00;9.30;;;;;;;4.57;69.49;99010.89;107004;1261;59609;-75
2023/12/20 05:42:03;;;;;;;13.70;10.30;;;;;;;4.56;69.53;99007.81;105995;1257;59841;-76
2023/12/20 05:44:30;;;;;;;12.70;10.00;;;;;;;4.54;69.58;99002.58;105794;1260;72431;-77
2023/12/20 05:46:58;;;;;;;13.60;9.10;;;;;;;4.52;69.70;98999.17;105670;1261;70071;-75
2023/12/20 05:49:26;;;;;;;12.40;9.40;;;;;;;4.51;69.46;98999.11;105944;1257;73098;-78
2023/12/20 05:51:54;;;;;;;13.60;8.50;;;;;;;4.51;69.52;99002.80;105749;1261;60889;-77
2023/12/20 05:54:22;;;;;;;12.20;8.70;;;;;;;4.61;68.88;99013.46;105840;1255;59733;-78
2023/12/20 05:56:50;;;;;;;10.40;8.00;;;;;;;4.68;68.60;99009.98;105696;1260;73268;-77
2023/12/20 05:59:18;;;;;;;11.00;8.20;;;;;;;4.69;68.38;99013.33;105601;1260;70293;-76
2023/12/20 06:01:46;;;;;;;11.60;8.60;;;;;;;4.69;68.41;99012.47;105705;1258;72765;-76
2023/12/20 06:04:13;;;;;;;10.90;8.40;;;;;;;4.68;68.40;98999.73;105757;1261;59659;-75
2023/12/20 06:06:42;;;;;;;13.40;8.30;;;;;;;4.68;67.96;99017.81;105641;1259;60901;-77
2023/12/20 06:09:10;;;;;;;13.90;8.90;;;;;;;4.69;68.16;99005.63;105742;1260;71489;-76
2023/12/20 06:11:38;;;;;;;19.30;9.90;;;;;;;4.68;68.21;99013.13;105709;1260;70686;-74
2023/12/20 06:14:06;;;;;;;15.40;9.20;;;;;;;4.65;68.52;99007.39;105995;1257;71460;-77
2023/12/20 06:16:33;;;;;;;15.50;9.30;;;;;;;4.63;68.39;99006.38;105737;1257;60522;-77
2023/12/20 06:19:01;;;;;;;14.30;9.50;;;;;;;4.64;68.40;99008.73;105740;1254;60426;-75
2023/12/20 06:21:29;;;;;;;12.00;8.70;;;;;;;4.65;68.30;99005.68;106497;1259;73906;-75
2023/12/20 06:23:59;;;;;;;13.50;8.70;;;;;;;4.66;68.52;99005.20;105879;1261;69252;-75
2023/12/20 06:26:27;;;;;;;14.30;9.90;;;;;;;4.66;68.36;99003.52;105679;1258;72616;-74
2023/12/20 06:28:55;;;;;;;18.30;10.80;;;;;;;4.65;68.50;99004.43;105943;1257;60518;-77
2023/12/20 06:31:23;;;;;;;19.90;12.20;;;;;;;4.65;68.61;99007.26;107198;1256;60899;-75
2023/12/20 06:33:57;;;;;;;17.20;10.90;;;;;;;4.68;68.73;99005.95;107381;1256;71694;-78
2023/12/20 06:36:26;;;;;;;18.70;12.80;;;;;;;4.80;68.57;99009.35;106225;1257;69165;-78
2023/12/20 06:38:54;;;;;;;21.30;13.40;;;;;;;4.86;68.18;99003.24;106145;1257;71011;-78
2023/12/20 06:41:24;;;;;;;17.10;10.80;;;;;;;4.90;67.80;99008.14;105894;1260;60507;-79
2023/12/20 06:43:53;;;;;;;17.10;11.80;;;;;;;4.91;67.80;99006.86;105772;1257;60455;-78
2023/12/20 06:46:20;;;;;;;13.50;9.80;;;;;;;4.93;68.03;98998.60;105747;1258;73876;-77
2023/12/20 06:48:48;;;;;;;13.40;10.20;;;;;;;4.94;67.58;99002.70;105662;1257;69043;-79
2023/12/20 06:51:16;;;;;;;16.30;10.90;;;;;;;4.98;67.57;99006.34;105596;1259;71495;-77
2023/12/20 06:53:44;;;;;;;16.70;11.50;;;;;;;5.01;67.29;99002.16;105719;1260;61082;-78
2023/12/20 06:56:16;;;;;;;17.90;10.70;;;;;;;5.04;67.18;98997.35;105758;1260;60441;-78
2023/12/20 06:58:46;;;;;;;15.90;10.80;;;;;;;5.07;67.16;98997.41;105628;1257;73879;-78
2023/12/20 07:01:14;;;;;;;15.80;9.90;;;;;;;5.10;66.97;98998.69;105614;1260;68763;-76
2023/12/20 07:03:42;;;;;;;20.30;12.00;;;;;;;5.12;67.00;99000.71;105725;1257;70650;-77
2023/12/20 07:06:10;;;;;;;21.90;13.40;;;;;;;5.13;67.13;99012.77;105665;1264;60487;-75
2023/12/20 07:08:40;;;;;;;19.80;12.90;;;;;;;5.12;67.07;99017.54;105687;1257;60458;-76
2023/12/20 07:11:07;;;;;;;16.60;11.50;;;;;;;5.12;67.23;99024.48;105562;1256;72569;-77
2023/12/20 07:13:35;;;;;;;14.20;11.00;;;;;;;5.10;67.24;99022.33;105694;1256;69029;-77
2023/12/20 07:16:03;;;;;;;13.60;9.70;;;;;;;5.11;67.14;99025.55;105747;1258;71513;-76
2023/12/20 07:18:31;;;;;;;15.70;9.80;;;;;;;5.13;67.22;99024.02;105621;1254;60429;-77
2023/12/20 07:20:58;;;;;;;15.00;8.90;;;;;;;5.16;67.08;99022.99;105511;1260;60339;-77
2023/12/20 07:23:26;;;;;;;12.90;9.20;;;;;;;5.17;67.07;99011.88;105488;1257;73042;-74
2023/12/20 07:25:54;;;;;;;16.40;11.10;;;;;;;5.23;66.92;99010.40;107458;1261;68762;-76
2023/12/20 07:28:22;;;;;;;20.60;13.10;;;;;;;5.28;66.97;99019.02;107452;1257;72520;-75
2023/12/20 07:30:49;;;;;;;15.80;11.70;;;;;;;5.35;66.71;99013.27;105737;1261;60547;-77
2023/12/20 07:33:17;;;;;;;20.20;12.90;;;;;;;5.42;66.83;99016.93;105802;1260;60547;-76
2023/12/20 07:35:45;;;;;;;15.50;11.20;;;;;;;5.50;66.82;99016.15;105784;1258;72704;-78
2023/12/20 07:38:13;;;;;;;16.20;10.80;;;;;;;5.58;66.96;99013.25;105551;1257;69347;-76
2023/12/20 07:40:40;;;;;;;16.80;11.00;;;;;;;5.67;66.91;98995.45;105483;1257;72421;-78
2023/12/20 07:43:08;;;;;;;13.70;10.70;;;;;;;5.77;66.96;98996.05;105462;1264;60472;-77
2023/12/20 07:45:36;;;;;;;16.50;10.20;;;;;;;5.85;67.18;98982.23;105565;1258;60424;-75
2023/12/20 07:48:04;;;;;;;13.80;10.10;;;;;;;5.94;67.16;98978.70;105548;1256;73918;-78
2023/12/20 07:50:32;;;;;;;12.40;9.60;;;;;;;6.02;67.15;98975.77;105653;1257;70375;-78
2023/12/20 07:53:00;;;;;;;12.40;9.20;;;;;;;6.11;67.02;98967.85;105443;1263;72452;-75
2023/12/20 07:55:30;;;;;;;13.50;9.20;;;;;;;6.19;66.95;98967.42;105636;1260;60410;-78
2023/12/20 07:57:59;;;;;;;14.60;9.30;;;;;;;6.25;66.70;98965.54;106263;1257;60475;-78
2023/12/20 08:00:27;;;;;;;12.10;9.40;;;;;;;6.30;66.68;98969.38;106246;1260;73963;-77
2023/12/20 08:02:55;;;;;;;15.30;9.20;;;;;;;6.37;66.65;98966.00;106255;1257;70165;-78
2023/12/20 08:05:23;;;;;;;13.00;8.60;;;;;;;6.45;66.98;98969.59;105761;1260;73680;-78
2023/12/20 08:07:50;;;;;;;14.40;9.50;;;;;;;6.53;66.95;98972.33;105745;1260;60615;-77
2023/12/20 08:10:19;;;;;;;15.30;9.70;;;;;;;6.59;67.02;98979.36;105761;1256;60420;-79
2023/12/20 08:12:47;;;;;;;15.20;8.80;;;;;;;6.67;66.97;98991.89;105887;1256;72612;-78
2023/12/20 08:15:15;;;;;;;12.10;9.00;;;;;;;6.72;66.87;98988.57;105502;1257;70485;-78
2023/12/20 08:17:42;;;;;;;18.30;12.10;;;;;;;6.77;67.00;98983.30;105441;1257;71453;-77
2023/12/20 08:20:11;;;;;;;19.90;11.50;;;;;;;6.82;67.05;98978.67;106864;1256;60515;-77
2023/12/20 08:22:42;;;;;;;18.40;11.40;;;;;;;6.87;66.62;98977.14;106906;1256;60324;-78
2023/12/20 08:25:09;;;;;;;17.30;10.20;;;;;;;6.94;66.39;98967.80;105754;1258;72601;-78
2023/12/20 08:27:40;;;;;;;16.20;10.20;;;;;;;6.96;65.58;98960.64;105711;1263;69322;-78
2023/12/20 08:30:10;;;;;;;16.10;9.40;;;;;;;6.99;65.48;98958.10;105721;1255;71259;-79
2023/12/20 08:32:37;;;;;;;29.70;12.20;;;;;;;7.01;65.63;98952.73;105441;1264;60542;-78
2023/12/20 08:35:05;;;;;;;16.30;10.80;;;;;;;7.06;65.54;98947.09;105620;1256;60493;-78
2023/12/20 08:37:33;;;;;;;13.70;9.70;;;;;;;7.12;64.25;98947.18;105658;1258;72595;-78
2023/12/20 08:40:01;;;;;;;14.80;9.50;;;;;;;7.17;64.07;98942.07;107029;1255;70624;-78
2023/12/20 08:42:31;;;;;;;17.10;11.00;;;;;;;7.22;63.55;98937.88;108139;1255;72078;-77
2023/12/20 08:44:59;;;;;;;18.20;7.50;;;;;;;7.28;62.95;98932.45;107949;1256;60471;-78
2023/12/20 08:47:27;;;;;;;13.20;9.30;;;;;;;7.32;62.78;98928.51;107477;1257;60467;-78
2023/12/20 08:49:56;;;;;;;9.80;7.10;;;;;;;7.32;62.49;98920.55;105889;1262;74860;-76
2023/12/20 08:52:24;;;;;;;13.20;9.20;;;;;;;7.33;62.14;98928.52;105597;1257;69987;-77
2023/12/20 08:54:53;;;;;;;15.40;10.10;;;;;;;7.35;62.32;98922.86;105735;1256;71452;-78
2023/12/20 08:57:22;;;;;;;13.50;9.50;;;;;;;7.36;62.04;98934.09;105792;1257;61816;-78
2023/12/20 08:59:50;;;;;;;15.40;10.10;;;;;;;7.37;61.88;98935.73;105530;1257;60318;-78
2023/12/20 09:02:18;;;;;;;13.30;9.30;;;;;;;7.42;61.42;98941.18;105609;1256;74077;-77
2023/12/20 09:04:45;;;;;;;15.30;9.90;;;;;;;7.56;60.98;98945.20;105558;1258;70553;-76
2023/12/20 09:07:24;;;;;;;16.90;11.70;;;;;;;7.70;60.28;98947.08;105483;1257;72789;-77
2023/12/20 09:10:58;;;;;;;16.80;10.20;;;;;;;7.71;59.80;98928.48;105590;1258;60473;-77
2023/12/20 09:13:28;;;;;;;17.30;10.80;;;;;;;7.88;59.37;98941.73;105928;1261;60456;-77
2023/12/20 09:15:56;;;;;;;14.50;10.70;;;;;;;8.01;58.77;98937.14;106621;1257;72632;-76
2023/12/20 09:18:24;;;;;;;14.10;8.90;;;;;;;7.98;58.26;98951.39;106031;1255;71400;-78
2023/12/20 09:20:52;;;;;;;15.20;10.10;;;;;;;7.87;58.56;98934.80;105627;1257;72059;-80
2023/12/20 09:23:19;;;;;;;15.00;9.70;;;;;;;7.76;58.96;98929.98;105626;1260;60516;-76
2023/12/20 09:25:47;;;;;;;18.30;9.70;;;;;;;7.68;58.91;98932.48;105711;1263;61534;-77
2023/12/20 09:28:14;;;;;;;13.20;9.20;;;;;;;7.61;58.84;98916.80;105805;1258;73580;-77
2023/12/20 09:30:44;;;;;;;11.40;8.40;;;;;;;7.56;58.97;98917.60;105654;1256;70506;-78
2023/12/20 09:33:12;;;;;;;13.20;8.40;;;;;;;7.52;59.00;98911.16;105609;1257;71750;-78
2023/12/20 09:35:40;;;;;;;10.90;7.90;;;;;;;7.48;58.74;98925.48;105567;1258;60324;-77
2023/12/20 09:38:08;;;;;;;14.60;8.90;;;;;;;7.46;58.83;98912.70;105925;1256;60544;-75
2023/12/20 09:40:35;;;;;;;20.00;11.10;;;;;;;7.46;58.99;98911.55;106077;1257;76427;-77
2023/12/20 09:43:03;;;;;;;11.30;8.10;;;;;;;7.50;58.77;98914.54;106948;1254;68698;-75
2023/12/20 09:45:32;;;;;;;12.30;10.10;;;;;;;7.54;58.66;98896.50;107895;1257;71460;-77
2023/12/20 09:47:59;;;;;;;13.90;9.40;;;;;;;7.60;59.05;98890.34;106730;1256;60595;-78
2023/12/20 09:50:27;;;;;;;11.40;9.10;;;;;;;7.70;58.74;98894.93;106170;1260;60406;-78
2023/12/20 09:52:58;;;;;;;14.80;9.10;;;;;;;7.77;58.57;98900.48;105719;1258;76057;-77
2023/12/20 09:55:25;;;;;;;12.60;8.10;;;;;;;7.89;57.32;98912.19;105682;1259;69539;-76
2023/12/20 09:57:53;;;;;;;14.10;7.70;;;;;;;7.99;56.79;98901.02;105498;1258;72708;-75
2023/12/20 10:00:21;;;;;;;10.00;7.30;;;;;;;8.04;56.59;98894.23;105747;1255;60443;-79
2023/12/20 10:03:00;;;;;;;9.90;8.00;;;;;;;8.12;56.90;98895.16;105635;1261;60438;-82
2023/12/20 10:05:31;;;;;;;13.70;9.20;;;;;;;8.31;56.61;98904.25;105802;1256;73819;-79
2023/12/20 10:08:00;;;;;;;9.40;7.80;;;;;;;8.67;56.26;98897.65;107839;1254;71130;-78
2023/12/20 10:10:29;;;;;;;11.20;8.80;;;;;;;9.18;54.81;98910.77;108161;1254;71100;-77
2023/12/20 10:13:12;;;;;;;9.50;8.10;;;;;;;9.77;53.73;98899.45;105990;1258;60545;-77
2023/12/20 10:15:40;;;;;;;11.50;7.80;;;;;;;10.07;53.03;98896.73;105964;1260;62339;-77
2023/12/20 10:18:12;;;;;;;12.30;7.30;;;;;;;10.38;52.12;98891.92;105609;1261;73799;-78
2023/12/20 10:20:41;;;;;;;11.00;7.80;;;;;;;10.74;51.00;98882.20;105583;1256;69947;-77
2023/12/20 10:23:10;;;;;;;10.20;7.00;;;;;;;11.28;50.18;98875.05;105580;1261;73701;-77
2023/12/20 10:25:37;;;;;;;8.50;6.80;;;;;;;11.69;48.41;98883.73;105474;1262;60552;-78
2023/12/20 10:28:13;;;;;;;8.90;7.40;;;;;;;11.59;48.08;98866.98;105619;1256;60441;-78
2023/12/20 10:30:41;;;;;;;8.00;6.40;;;;;;;11.20;49.16;98860.67;105707;1261;76254;-73
2023/12/20 10:33:09;;;;;;;8.70;7.10;;;;;;;10.89;49.70;98858.39;105455;1263;71397;-77
2023/12/20 10:35:39;;;;;;;9.10;6.80;;;;;;;11.03;50.25;98853.23;105758;1255;71646;-78
2023/12/20 10:38:11;;;;;;;11.80;8.80;;;;;;;11.77;48.82;98871.70;105651;1256;60447;-74
2023/12/20 10:40:39;;;;;;;8.30;6.50;;;;;;;12.56;46.85;98880.27;105638;1257;60598;-77
2023/12/20 10:43:06;;;;;;;11.30;8.70;;;;;;;13.17;46.23;98870.48;105699;1256;76259;-77
2023/12/20 10:45:34;;;;;;;12.80;8.20;;;;;;;13.83;45.41;98866.31;105525;1257;70197;-77
2023/12/20 10:48:02;;;;;;;11.50;9.00;;;;;;;14.50;44.09;98863.40;105600;1258;72777;-74
2023/12/20 10:50:31;;;;;;;12.60;9.10;;;;;;;14.94;43.18;98859.73;105651;1255;61081;-74
2023/12/20 10:52:59;;;;;;;11.40;7.90;;;;;;;15.29;42.44;98859.73;105527;1256;60424;-76
2023/12/20 10:55:27;;;;;;;10.10;7.20;;;;;;;15.51;41.85;98864.04;105581;1257;73077;-76
2023/12/20 10:58:07;;;;;;;12.30;8.70;;;;;;;15.65;41.70;98859.66;105511;1256;71658;-75
2023/12/20 11:00:41;;;;;;;11.70;9.00;;;;;;;15.54;41.56;98857.50;106114;1257;72418;-77
2023/12/20 11:03:10;;;;;;;9.00;7.50;;;;;;;15.06;42.32;98852.27;106640;1256;61005;-75
2023/12/20 11:05:55;;;;;;;10.00;7.60;;;;;;;14.36;43.13;98846.08;106118;1257;60541;-76
2023/12/20 11:08:58;;;;;;;11.70;9.20;;;;;;;13.66;44.18;98861.68;105743;1258;73892;-75
2023/12/20 11:11:32;;;;;;;10.90;8.50;;;;;;;13.06;45.11;98848.34;105552;1261;69049;-75
2023/12/20 11:14:32;;;;;;;11.00;8.60;;;;;;;12.50;45.90;98844.45;105793;1258;75258;-76
2023/12/20 11:17:09;;;;;;;8.40;7.30;;;;;;;12.05;46.77;98836.60;105750;1259;60569;-77
2023/12/20 11:19:43;;;;;;;12.30;8.30;;;;;;;11.81;47.46;98834.10;105761;1256;60431;-78
2023/12/20 11:22:11;;;;;;;12.00;7.80;;;;;;;11.54;47.78;98824.39;105748;1256;72773;-76
2023/12/20 11:24:40;;;;;;;13.60;8.00;;;;;;;11.29;48.57;98816.89;105744;1257;70108;-76
2023/12/20 11:27:08;;;;;;;10.10;8.10;;;;;;;11.04;48.83;98820.33;105696;1256;74955;-75
2023/12/20 11:29:36;;;;;;;8.70;7.30;;;;;;;10.82;49.25;98826.86;105768;1257;62485;-76
2023/12/20 11:32:27;;;;;;;10.30;7.30;;;;;;;10.56;49.05;98823.33;105968;1256;60939;-77